Time;durP1;ratioP1;P1;durP2;ratioP2;P2;SDS_P1;SDS_P2;PMS_P1;PMS_P2;Temp;Humidity;BMP_temperature;BMP_pressure;BME280_temperature;BME280_humidity;BME280_pressure;Samples;Min_cycle;Max_cycle;Signal;HPM_P1;HPM_P2
2022/01/05 00:00:32;;;;;;;7.85;2.03;;;;;;;2.77;86.25;100025.78;4969123;28;20029;-72
2022/01/05 00:02:57;;;;;;;5.25;1.50;;;;;;;2.76;86.89;100024.06;4981601;28;20039;-77
2022/01/05 00:05:22;;;;;;;13.68;1.90;;;;;;;2.73;86.54;100034.94;4977907;28;20030;-78
2022/01/05 00:07:48;;;;;;;8.05;1.60;;;;;;;2.71;86.00;100036.84;4982069;28;20026;-76
2022/01/05 00:10:13;;;;;;;7.18;2.30;;;;;;;2.69;86.26;100039.59;4981695;28;20065;-76
2022/01/05 00:12:39;;;;;;;4.25;1.60;;;;;;;2.68;85.94;100034.31;4982292;28;20034;-72
2022/01/05 00:15:05;;;;;;;9.55;2.20;;;;;;;2.64;85.77;100033.63;4978689;28;20096;-75
2022/01/05 00:17:30;;;;;;;5.93;2.05;;;;;;;2.62;85.55;100035.53;4985777;28;20042;-76
2022/01/05 00:19:55;;;;;;;6.40;1.85;;;;;;;2.58;84.99;100031.25;4984343;28;20606;-74
2022/01/05 00:22:21;;;;;;;6.72;1.73;;;;;;;2.54;85.81;100035.91;4978734;28;20034;-75
2022/01/05 00:24:46;;;;;;;7.50;1.52;;;;;;;2.50;85.52;100034.34;4980467;28;20026;-75
2022/01/05 00:27:11;;;;;;;7.50;1.63;;;;;;;2.49;85.61;100029.06;4986965;28;20030;-79
2022/01/05 00:29:37;;;;;;;6.80;1.60;;;;;;;2.44;85.15;100034.66;4978388;28;20037;-72
2022/01/05 00:32:02;;;;;;;4.78;1.70;;;;;;;2.38;85.57;100031.41;4971222;28;20035;-73
2022/01/05 00:34:27;;;;;;;7.90;2.10;;;;;;;2.35;85.65;100035.13;4981082;28;20034;-76
2022/01/05 00:36:53;;;;;;;7.80;1.77;;;;;;;2.32;85.45;100032.59;4984974;28;20200;-71
2022/01/05 00:39:18;;;;;;;8.00;2.45;;;;;;;2.28;85.25;100039.06;4975899;28;20028;-75
2022/01/05 00:41:43;;;;;;;6.13;1.75;;;;;;;2.25;85.53;100040.13;4974542;28;20479;-75
2022/01/05 00:44:09;;;;;;;3.15;1.35;;;;;;;2.21;85.69;100041.22;4981293;28;20085;-72
2022/01/05 00:46:34;;;;;;;8.15;2.13;;;;;;;2.17;86.09;100041.44;4987848;28;20030;-76
2022/01/05 00:48:59;;;;;;;12.38;1.75;;;;;;;2.14;85.52;100049.66;4980799;28;20018;-75
2022/01/05 00:51:25;;;;;;;7.00;1.95;;;;;;;2.10;85.71;100048.06;4986542;28;20041;-76
2022/01/05 00:53:50;;;;;;;12.10;1.85;;;;;;;2.06;86.14;100052.72;4974037;28;20478;-76
2022/01/05 00:56:15;;;;;;;8.85;1.92;;;;;;;2.06;85.54;100062.59;4986501;28;20057;-77
2022/01/05 00:58:40;;;;;;;10.30;1.80;;;;;;;2.00;85.49;100064.63;4972261;28;20420;-76
2022/01/05 01:01:06;;;;;;;12.60;2.45;;;;;;;1.99;86.33;100067.38;4975331;28;20394;-76
2022/01/05 01:03:31;;;;;;;9.05;2.08;;;;;;;1.92;86.03;100057.91;4978623;28;20026;-76
2022/01/05 01:05:59;;;;;;;11.23;2.08;;;;;;;1.90;85.95;100059.78;4974526;28;20499;-76
2022/01/05 01:08:25;;;;;;;9.40;2.15;;;;;;;1.87;86.15;100063.50;4981690;28;20030;-76
2022/01/05 01:10:50;;;;;;;11.82;2.58;;;;;;;1.83;86.37;100061.06;4983378;28;20522;-76
2022/01/05 01:13:17;;;;;;;10.98;1.83;;;;;;;1.77;86.57;100057.72;4984478;28;20034;-77
2022/01/05 01:15:51;;;;;;;4.43;1.77;;;;;;;1.73;86.83;100068.69;4983652;28;20046;-77
2022/01/05 01:18:17;;;;;;;3.45;2.03;;;;;;;1.68;86.98;100076.94;4979804;28;20049;-75
2022/01/05 01:20:43;;;;;;;13.25;2.47;;;;;;;1.67;86.79;100077.00;4983197;28;20029;-77
2022/01/05 01:23:08;;;;;;;4.25;1.70;;;;;;;1.64;86.51;100074.50;4986936;28;20390;-72
2022/01/05 01:25:34;;;;;;;7.47;2.38;;;;;;;1.62;86.86;100082.59;4976451;28;20097;-73
2022/01/05 01:28:00;;;;;;;4.53;1.65;;;;;;;1.57;87.04;100081.06;4972937;28;20038;-75
2022/01/05 01:30:25;;;;;;;10.38;2.45;;;;;;;1.54;86.51;100084.78;4979848;28;20044;-75
2022/01/05 01:32:50;;;;;;;9.02;2.45;;;;;;;1.52;86.61;100083.97;4982799;28;20070;-73
2022/01/05 01:35:16;;;;;;;9.15;2.13;;;;;;;1.51;86.91;100092.97;4984037;28;20033;-77
2022/01/05 01:37:41;;;;;;;9.45;2.08;;;;;;;1.49;86.98;100093.03;4982437;28;20096;-76
2022/01/05 01:40:08;;;;;;;6.63;2.05;;;;;;;1.46;86.86;100085.13;4985172;28;20030;-77
2022/01/05 01:42:33;;;;;;;7.82;2.30;;;;;;;1.44;86.82;100086.13;4982034;28;20027;-75
2022/01/05 01:44:59;;;;;;;13.77;2.65;;;;;;;1.43;86.67;100084.41;4979504;28;20026;-72
2022/01/05 01:47:24;;;;;;;7.03;1.90;;;;;;;1.40;87.24;100085.44;4981277;28;20525;-74
2022/01/05 01:49:50;;;;;;;12.70;2.25;;;;;;;1.40;86.74;100074.72;4979668;28;20555;-76
2022/01/05 01:52:16;;;;;;;10.57;2.40;;;;;;;1.38;86.45;100081.94;4989792;28;20049;-72
2022/01/05 01:54:42;;;;;;;10.35;2.00;;;;;;;1.34;86.53;100077.66;4981169;28;20018;-74
2022/01/05 01:57:07;;;;;;;7.15;2.92;;;;;;;1.34;86.71;100083.03;4988473;28;20030;-76
2022/01/05 01:59:34;;;;;;;7.72;2.08;;;;;;;1.30;86.52;100086.78;4985175;28;20077;-72
2022/01/05 02:01:59;;;;;;;6.40;2.13;;;;;;;1.31;86.43;100090.34;4985052;28;20394;-76
2022/01/05 02:04:25;;;;;;;13.23;2.65;;;;;;;1.30;86.48;100093.94;4977312;28;20049;-75
2022/01/05 02:06:51;;;;;;;14.60;2.80;;;;;;;1.26;86.18;100087.91;4982425;28;20037;-76
2022/01/05 02:09:17;;;;;;;5.60;2.22;;;;;;;1.25;86.51;100092.34;4990373;28;20026;-76
2022/01/05 02:11:43;;;;;;;12.75;2.17;;;;;;;1.22;86.67;100089.84;4985331;28;20030;-74
2022/01/05 02:14:08;;;;;;;9.23;1.88;;;;;;;1.18;86.40;100087.38;4987862;28;20076;-78
2022/01/05 02:16:38;;;;;;;8.15;2.25;;;;;;;1.15;86.81;100088.38;4981314;28;20029;-74
2022/01/05 02:19:04;;;;;;;5.90;1.75;;;;;;;1.12;86.66;100085.84;4978902;28;20026;-77
2022/01/05 02:21:33;;;;;;;12.82;2.20;;;;;;;1.10;86.42;100087.72;4981746;28;20060;-73
2022/01/05 02:24:00;;;;;;;13.13;2.42;;;;;;;1.08;86.46;100081.56;4987455;28;20104;-76
2022/01/05 02:26:25;;;;;;;10.20;2.05;;;;;;;1.07;86.55;100098.56;4977711;28;20046;-75
2022/01/05 02:28:51;;;;;;;8.20;1.92;;;;;;;1.04;86.33;100100.53;4979347;28;20037;-73
2022/01/05 02:31:16;;;;;;;9.43;1.80;;;;;;;1.01;86.15;100099.72;4980969;28;20121;-76
2022/01/05 02:33:42;;;;;;;8.75;1.92;;;;;;;0.97;86.30;100099.91;4979513;28;20122;-76
2022/01/05 02:36:08;;;;;;;16.10;2.08;;;;;;;0.95;86.85;100102.66;4980798;28;20379;-75
2022/01/05 02:38:33;;;;;;;4.90;1.58;;;;;;;0.94;86.47;100103.63;4988486;28;20034;-75
2022/01/05 02:41:08;;;;;;;8.98;2.50;;;;;;;0.94;86.39;100100.06;4972857;28;20037;-72
2022/01/05 02:43:35;;;;;;;10.75;1.90;;;;;;;0.91;86.01;100106.41;4976694;28;20090;-76
2022/01/05 02:46:01;;;;;;;13.98;2.00;;;;;;;0.90;85.88;100101.16;4984536;28;20636;-76
2022/01/05 02:48:27;;;;;;;8.88;1.98;;;;;;;0.91;86.27;100111.78;4974994;28;20027;-72
2022/01/05 02:50:56;;;;;;;7.13;1.80;;;;;;;0.89;86.30;100111.00;4979635;28;20029;-75
2022/01/05 02:53:21;;;;;;;11.35;2.15;;;;;;;0.88;86.15;100117.25;4975264;28;20066;-76
2022/01/05 02:55:46;;;;;;;6.45;1.75;;;;;;;0.86;86.13;100116.47;4983557;28;20031;-73
2022/01/05 02:58:11;;;;;;;8.23;1.50;;;;;;;0.82;86.08;100120.22;4988267;28;20030;-77
2022/01/05 03:00:37;;;;;;;6.20;1.75;;;;;;;0.79;86.03;100120.34;4973744;28;20035;-76
2022/01/05 03:03:02;;;;;;;8.77;1.65;;;;;;;0.79;85.48;100124.81;4982847;28;20038;-77
2022/01/05 03:05:27;;;;;;;4.10;1.70;;;;;;;0.82;85.31;100130.94;4979292;28;20506;-75
2022/01/05 03:07:53;;;;;;;11.65;2.55;;;;;;;0.80;85.54;100134.63;4983087;28;20062;-76
2022/01/05 03:10:19;;;;;;;6.38;2.55;;;;;;;0.79;86.04;100132.84;4982321;28;20030;-73
2022/01/05 03:12:44;;;;;;;11.48;2.03;;;;;;;0.77;85.71;100136.47;4984334;28;20082;-75
2022/01/05 03:15:10;;;;;;;10.55;2.20;;;;;;;0.75;85.92;100137.50;4983108;28;20100;-75
2022/01/05 03:17:35;;;;;;;9.63;1.83;;;;;;;0.76;85.74;100142.78;4980552;28;20611;-76
2022/01/05 03:20:01;;;;;;;8.40;1.95;;;;;;;0.75;86.13;100148.22;4986943;28;20490;-76
2022/01/05 03:22:26;;;;;;;14.30;2.00;;;;;;;0.75;85.64;100157.09;4981628;28;20439;-72
2022/01/05 03:24:51;;;;;;;11.40;2.38;;;;;;;0.77;85.45;100154.34;4981991;28;20038;-74
2022/01/05 03:27:16;;;;;;;7.72;2.05;;;;;;;0.77;85.70;100155.22;4985490;28;20030;-75
2022/01/05 03:29:42;;;;;;;7.43;2.25;;;;;;;0.77;85.62;100152.53;4981741;28;20030;-76
2022/01/05 03:32:08;;;;;;;8.38;1.70;;;;;;;0.75;85.62;100149.06;4985039;28;20036;-75
2022/01/05 03:34:33;;;;;;;7.95;2.17;;;;;;;0.72;85.66;100157.22;4971944;28;20320;-75
2022/01/05 03:37:00;;;;;;;6.80;2.65;;;;;;;0.71;85.57;100157.31;4984535;28;20033;-77
2022/01/05 03:39:25;;;;;;;9.50;1.67;;;;;;;0.70;85.49;100166.25;4980001;28;20030;-73
2022/01/05 03:41:51;;;;;;;7.85;2.35;;;;;;;0.69;85.96;100173.41;4987370;28;20064;-77
2022/01/05 03:44:16;;;;;;;10.48;1.98;;;;;;;0.65;86.30;100160.22;4973146;28;20026;-75
2022/01/05 03:46:41;;;;;;;6.93;1.65;;;;;;;0.69;86.25;100177.91;4988210;28;20018;-73
2022/01/05 03:49:06;;;;;;;6.15;1.45;;;;;;;0.67;86.11;100172.63;4996945;28;20059;-77
2022/01/05 03:51:32;;;;;;;6.35;1.80;;;;;;;0.72;86.24;100167.06;4980984;28;20031;-76
2022/01/05 03:53:57;;;;;;;10.68;1.63;;;;;;;0.74;86.10;100168.72;4982082;28;20018;-75
2022/01/05 03:56:22;;;;;;;13.63;1.85;;;;;;;0.73;86.04;100166.13;4984315;28;20141;-72
2022/01/05 03:58:48;;;;;;;13.25;2.53;;;;;;;0.80;86.01;100166.75;4980809;28;20069;-72
2022/01/05 04:01:13;;;;;;;14.10;1.40;;;;;;;0.80;85.90;100169.44;4981012;28;20050;-76
2022/01/05 04:03:38;;;;;;;9.98;2.00;;;;;;;0.76;85.99;100171.34;4985303;28;20030;-72
2022/01/05 04:06:05;;;;;;;10.05;2.45;;;;;;;0.71;85.79;100174.22;4979962;28;20062;-74
2022/01/05 04:08:30;;;;;;;8.02;2.00;;;;;;;0.75;85.93;100174.97;4982189;28;20040;-78
2022/01/05 04:10:56;;;;;;;10.82;1.92;;;;;;;0.76;86.01;100169.56;4979093;28;20456;-76
2022/01/05 04:13:21;;;;;;;13.98;2.20;;;;;;;0.79;85.74;100178.38;4986575;28;20359;-77
2022/01/05 04:15:46;;;;;;;10.35;2.15;;;;;;;0.77;85.76;100176.63;4984779;28;20103;-77
2022/01/05 04:18:11;;;;;;;12.70;2.60;;;;;;;0.74;85.98;100176.75;4976964;28;20030;-75
2022/01/05 04:20:37;;;;;;;12.13;1.70;;;;;;;0.74;85.54;100181.25;4973474;28;20056;-76
2022/01/05 04:23:02;;;;;;;8.88;2.05;;;;;;;0.70;85.78;100175.19;4987503;28;20076;-76
2022/01/05 04:25:28;;;;;;;7.90;2.33;;;;;;;0.69;85.92;100186.78;4982831;28;20390;-77
2022/01/05 04:27:53;;;;;;;10.05;1.95;;;;;;;0.69;85.83;100191.28;4984417;28;20056;-73
2022/01/05 04:30:18;;;;;;;11.13;2.38;;;;;;;0.69;86.31;100192.16;4976999;28;20521;-72
2022/01/05 04:32:44;;;;;;;12.90;2.30;;;;;;;0.61;85.75;100183.59;4985009;28;20026;-75
2022/01/05 04:35:12;;;;;;;7.78;1.80;;;;;;;0.65;86.04;100198.59;4971116;28;20467;-77
2022/01/05 04:37:38;;;;;;;15.52;2.35;;;;;;;0.66;85.96;100196.78;4986384;28;20060;-75
2022/01/05 04:40:04;;;;;;;13.23;2.03;;;;;;;0.65;85.99;100198.59;4979887;28;20083;-76
2022/01/05 04:42:29;;;;;;;18.25;2.58;;;;;;;0.65;86.34;100203.03;4977682;28;20406;-77
2022/01/05 04:44:55;;;;;;;10.88;1.52;;;;;;;0.71;86.22;100210.84;4983839;28;20540;-76
2022/01/05 04:47:20;;;;;;;14.55;2.50;;;;;;;0.75;86.06;100202.63;4987269;28;20038;-77
2022/01/05 04:49:46;;;;;;;12.98;1.60;;;;;;;0.81;86.11;100195.25;4981436;28;20570;-77
2022/01/05 04:52:11;;;;;;;10.38;1.92;;;;;;;0.85;86.67;100210.25;4986877;28;20022;-75
2022/01/05 04:54:36;;;;;;;13.77;2.00;;;;;;;0.88;86.58;100197.59;4974388;28;20034;-78
2022/01/05 04:57:02;;;;;;;15.82;2.28;;;;;;;0.96;86.47;100208.84;4976443;28;20043;-76
2022/01/05 04:59:27;;;;;;;10.32;2.08;;;;;;;0.99;86.37;100206.03;4976343;28;20082;-77
2022/01/05 05:01:52;;;;;;;6.38;2.25;;;;;;;1.05;86.44;100214.75;4985360;28;20041;-76
2022/01/05 05:04:18;;;;;;;10.73;2.67;;;;;;;1.10;86.00;100221.63;4973284;28;20603;-76
2022/01/05 05:06:43;;;;;;;13.32;2.42;;;;;;;1.13;86.55;100209.94;4983210;28;20157;-73
2022/01/05 05:09:08;;;;;;;16.42;2.88;;;;;;;1.19;86.21;100215.00;4978891;28;20037;-76
2022/01/05 05:11:34;;;;;;;18.10;2.38;;;;;;;1.23;86.55;100216.63;4985437;28;20038;-77
2022/01/05 05:14:00;;;;;;;15.05;2.13;;;;;;;1.27;86.48;100223.59;4980081;28;20644;-77
2022/01/05 05:16:25;;;;;;;7.20;1.88;;;;;;;1.32;86.10;100218.88;4985720;28;20042;-73
2022/01/05 05:18:51;;;;;;;14.15;2.60;;;;;;;1.34;86.56;100225.03;4975974;28;20027;-72
2022/01/05 05:21:16;;;;;;;13.75;3.15;;;;;;;1.41;86.36;100217.63;4988655;28;20034;-73
2022/01/05 05:23:41;;;;;;;19.13;3.83;;;;;;;1.44;86.45;100223.69;4983760;28;20423;-73
2022/01/05 05:26:07;;;;;;;8.02;2.17;;;;;;;1.48;85.89;100225.28;4978314;28;20041;-75
2022/01/05 05:28:32;;;;;;;15.05;2.47;;;;;;;1.52;86.22;100213.50;4980811;28;20033;-77
2022/01/05 05:30:57;;;;;;;12.30;2.08;;;;;;;1.57;86.25;100215.09;4971499;28;20035;-76
2022/01/05 05:33:22;;;;;;;17.60;2.45;;;;;;;1.61;86.42;100212.22;4988443;28;20368;-73
2022/01/05 05:35:48;;;;;;;7.68;2.22;;;;;;;1.62;86.06;100221.13;4986631;28;20034;-73
2022/01/05 05:38:15;;;;;;;8.20;1.90;;;;;;;1.65;86.28;100215.63;4978486;28;20042;-76
2022/01/05 05:40:42;;;;;;;14.38;2.00;;;;;;;1.68;86.22;100216.38;4984913;28;20645;-77
2022/01/05 05:43:07;;;;;;;9.68;1.63;;;;;;;1.70;86.44;100206.41;4988335;28;20552;-73
2022/01/05 05:45:32;;;;;;;15.15;2.35;;;;;;;1.73;86.16;100221.50;4990203;28;20030;-77
2022/01/05 05:47:58;;;;;;;13.75;2.63;;;;;;;1.75;86.43;100223.16;4983800;28;20030;-74
2022/01/05 05:50:23;;;;;;;15.18;2.20;;;;;;;1.75;86.70;100230.34;4989825;28;20538;-75
2022/01/05 05:52:49;;;;;;;12.27;2.65;;;;;;;1.77;86.41;100232.03;4981647;28;20073;-73
2022/01/05 05:55:14;;;;;;;8.60;2.42;;;;;;;1.81;86.39;100238.09;4973024;28;20484;-74
2022/01/05 05:57:39;;;;;;;9.50;2.28;;;;;;;1.85;86.49;100228.09;4979770;28;20045;-76
2022/01/05 06:00:07;;;;;;;14.70;2.30;;;;;;;1.85;86.25;100231.66;4980586;28;20044;-75
2022/01/05 06:02:33;;;;;;;14.93;2.85;;;;;;;1.88;86.38;100231.53;4987516;28;20425;-77
2022/01/05 06:04:58;;;;;;;7.10;2.22;;;;;;;1.87;86.52;100232.47;4984866;28;20034;-74
2022/01/05 06:07:23;;;;;;;9.73;2.08;;;;;;;1.89;86.40;100241.31;4981445;28;20027;-73
2022/01/05 06:09:48;;;;;;;10.68;2.42;;;;;;;1.88;86.23;100230.66;4973778;28;20034;-75
2022/01/05 06:12:14;;;;;;;14.57;2.13;;;;;;;1.87;86.29;100224.41;4988126;28;20124;-75
2022/01/05 06:14:39;;;;;;;18.27;2.22;;;;;;;1.89;86.26;100230.56;4975125;28;20031;-74
2022/01/05 06:17:04;;;;;;;15.50;2.20;;;;;;;1.87;86.42;100237.84;4982730;28;20038;-78
2022/01/05 06:19:30;;;;;;;13.52;2.03;;;;;;;1.87;86.19;100228.91;4977230;28;20561;-77
2022/01/05 06:21:56;;;;;;;11.93;2.45;;;;;;;1.85;86.47;100238.84;4982026;28;20022;-77
2022/01/05 06:24:21;;;;;;;11.55;2.13;;;;;;;1.81;86.61;100242.59;4984919;28;20043;-76
2022/01/05 06:26:46;;;;;;;15.18;2.35;;;;;;;1.82;86.27;100247.91;4987939;28;20022;-77
2022/01/05 06:29:15;;;;;;;21.02;2.28;;;;;;;1.81;86.92;100247.97;4988595;28;20074;-77
2022/01/05 06:31:40;;;;;;;8.02;2.33;;;;;;;1.82;86.91;100247.00;4982861;28;20390;-75
2022/01/05 06:34:06;;;;;;;11.88;3.30;;;;;;;1.81;86.60;100253.31;4988213;28;20498;-76
2022/01/05 06:36:32;;;;;;;14.60;2.85;;;;;;;1.81;86.75;100254.19;4980463;28;20109;-72
2022/01/05 06:38:57;;;;;;;13.60;2.35;;;;;;;1.82;87.03;100252.38;4976999;28;20030;-73
2022/01/05 06:41:22;;;;;;;14.27;2.42;;;;;;;1.86;86.82;100267.38;4984918;28;20487;-73
2022/01/05 06:43:48;;;;;;;11.02;2.63;;;;;;;1.86;87.26;100268.25;4986915;28;20030;-76
2022/01/05 06:46:13;;;;;;;11.98;2.53;;;;;;;1.89;87.01;100267.25;4984505;28;20409;-76
2022/01/05 06:48:38;;;;;;;16.02;2.65;;;;;;;1.90;87.14;100269.00;4980161;28;20034;-78
2022/01/05 06:51:03;;;;;;;20.77;3.00;;;;;;;1.91;86.94;100265.34;4982534;28;20030;-73
2022/01/05 06:53:29;;;;;;;9.07;2.33;;;;;;;1.92;86.95;100272.50;4982613;28;20022;-76
2022/01/05 06:55:54;;;;;;;14.43;3.20;;;;;;;1.94;87.15;100274.13;4986819;28;20430;-78
2022/01/05 06:58:19;;;;;;;10.57;2.05;;;;;;;1.93;86.83;100269.72;4983218;28;20026;-76
2022/01/05 07:00:45;;;;;;;18.27;3.30;;;;;;;1.96;87.11;100288.38;4974629;28;20042;-78
2022/01/05 07:03:10;;;;;;;14.18;3.20;;;;;;;1.94;87.32;100284.88;4986336;28;20080;-77
2022/01/05 07:05:36;;;;;;;8.43;2.53;;;;;;;1.96;87.37;100292.88;4978706;28;20113;-77
2022/01/05 07:08:01;;;;;;;12.88;2.85;;;;;;;1.95;87.27;100302.69;4986330;28;20034;-75
2022/01/05 07:10:27;;;;;;;12.05;2.53;;;;;;;1.96;87.44;100299.09;4983665;28;20141;-76
2022/01/05 07:12:52;;;;;;;11.98;2.58;;;;;;;1.96;87.37;100287.50;4979893;28;20026;-75
2022/01/05 07:15:18;;;;;;;10.50;2.60;;;;;;;1.96;87.40;100295.53;4985455;28;20054;-75
2022/01/05 07:17:43;;;;;;;12.70;2.88;;;;;;;1.93;87.50;100296.53;4986306;28;20325;-77
2022/01/05 07:20:10;;;;;;;12.35;3.30;;;;;;;1.95;87.63;100301.81;4985785;28;20459;-76
2022/01/05 07:22:36;;;;;;;14.23;3.05;;;;;;;1.94;87.68;100306.31;4988090;28;20541;-77
2022/01/05 07:25:03;;;;;;;8.68;3.15;;;;;;;1.93;87.96;100304.59;4985410;28;20030;-75
2022/01/05 07:27:28;;;;;;;11.60;3.35;;;;;;;1.95;87.77;100309.88;4978123;28;20034;-76
2022/01/05 07:29:54;;;;;;;9.63;2.42;;;;;;;1.97;87.65;100319.59;4987530;28;20073;-76
2022/01/05 07:32:19;;;;;;;10.68;2.55;;;;;;;2.00;87.54;100318.59;4983601;28;20411;-76
2022/01/05 07:34:44;;;;;;;13.13;3.03;;;;;;;2.05;87.68;100319.25;4977979;28;20121;-79
2022/01/05 07:37:09;;;;;;;11.65;2.50;;;;;;;2.07;87.80;100320.06;4978391;28;20038;-75
2022/01/05 07:39:35;;;;;;;24.67;3.00;;;;;;;2.11;87.82;100318.97;4988408;28;20501;-76
2022/01/05 07:42:01;;;;;;;14.30;3.28;;;;;;;2.17;87.57;100312.44;4985155;28;20121;-78
2022/01/05 07:44:26;;;;;;;8.07;2.42;;;;;;;2.23;87.40;100326.44;4981144;28;20031;-76
2022/01/05 07:46:51;;;;;;;9.70;2.42;;;;;;;2.27;87.31;100328.03;4988816;28;20061;-78
2022/01/05 07:49:16;;;;;;;8.90;2.80;;;;;;;2.35;87.06;100333.06;4984969;28;20100;-76
2022/01/05 07:51:42;;;;;;;15.45;2.35;;;;;;;2.45;86.56;100339.75;4985764;28;20026;-73
2022/01/05 07:54:07;;;;;;;6.65;1.98;;;;;;;2.53;86.31;100328.66;4970046;28;20035;-75
2022/01/05 07:56:33;;;;;;;15.52;3.83;;;;;;;2.62;86.10;100346.13;4981837;28;20042;-76
2022/01/05 07:58:58;;;;;;;13.25;2.22;;;;;;;2.69;85.76;100342.19;4978389;28;20034;-79
2022/01/05 08:01:23;;;;;;;11.25;3.15;;;;;;;2.78;85.85;100353.38;4973709;28;20030;-73
2022/01/05 08:03:50;;;;;;;13.20;2.15;;;;;;;2.84;85.93;100354.00;4982246;28;20026;-77
2022/01/05 08:06:17;;;;;;;12.57;2.13;;;;;;;2.90;85.49;100357.28;4982703;28;20069;-76
2022/01/05 08:08:43;;;;;;;12.07;2.22;;;;;;;2.94;85.39;100366.06;4987897;28;20026;-75
2022/01/05 08:11:09;;;;;;;10.30;2.30;;;;;;;2.99;85.33;100367.59;4987033;28;20030;-72
2022/01/05 08:13:34;;;;;;;8.00;1.98;;;;;;;3.02;84.99;100361.16;4978107;28;20065;-73
2022/01/05 08:15:59;;;;;;;7.28;1.95;;;;;;;3.05;85.10;100369.09;4973081;28;20130;-76
2022/01/05 08:18:25;;;;;;;13.77;2.78;;;;;;;3.05;85.35;100371.78;4986357;28;20410;-72
2022/01/05 08:20:50;;;;;;;11.90;2.35;;;;;;;3.05;85.33;100369.09;4986441;28;20149;-73
2022/01/05 08:23:16;;;;;;;11.02;2.65;;;;;;;3.10;84.85;100372.41;4983964;28;20027;-77
2022/01/05 08:25:42;;;;;;;10.13;2.58;;;;;;;3.12;85.02;100373.19;4977912;28;20102;-79
2022/01/05 08:28:08;;;;;;;15.10;2.80;;;;;;;3.11;84.78;100363.41;4985768;28;20133;-72
2022/01/05 08:30:35;;;;;;;17.33;3.10;;;;;;;3.15;85.16;100361.44;4978102;28;20034;-76
2022/01/05 08:33:03;;;;;;;10.05;1.88;;;;;;;3.12;84.66;100367.81;4985308;28;20036;-76
2022/01/05 08:35:28;;;;;;;15.88;2.47;;;;;;;3.11;85.22;100367.91;4983812;28;20121;-77
2022/01/05 08:37:54;;;;;;;14.95;2.53;;;;;;;3.11;84.63;100371.47;4975780;28;20032;-76
2022/01/05 08:40:21;;;;;;;13.02;2.95;;;;;;;3.17;84.52;100375.66;4978533;28;20031;-76
2022/01/05 08:42:48;;;;;;;10.55;2.17;;;;;;;3.21;84.79;100378.13;4977606;28;20146;-76
2022/01/05 08:45:15;;;;;;;19.60;2.65;;;;;;;3.23;84.52;100373.56;4975113;28;20045;-75
2022/01/05 08:47:47;;;;;;;9.77;2.20;;;;;;;3.26;84.71;100384.16;4969756;28;20395;-73
2022/01/05 08:50:12;;;;;;;11.07;2.35;;;;;;;3.27;84.44;100385.91;4978003;28;20553;-77
2022/01/05 08:52:37;;;;;;;9.57;2.20;;;;;;;3.25;84.69;100378.84;4969439;28;20022;-75
2022/01/05 08:55:03;;;;;;;13.02;2.80;;;;;;;3.25;84.47;100377.03;4972229;28;20070;-77
2022/01/05 08:57:28;;;;;;;9.00;2.33;;;;;;;3.25;84.42;100376.16;4971829;28;20027;-76
2022/01/05 08:59:54;;;;;;;13.77;2.25;;;;;;;3.28;83.99;100379.56;4977913;28;20037;-76
2022/01/05 09:02:19;;;;;;;16.10;2.17;;;;;;;3.39;83.51;100388.91;4972772;28;20383;-77
2022/01/05 09:04:44;;;;;;;14.57;3.05;;;;;;;3.49;84.16;100390.19;4971937;28;20065;-73
2022/01/05 09:07:10;;;;;;;13.38;3.03;;;;;;;3.61;84.18;100391.41;4970676;28;20377;-76
2022/01/05 09:09:36;;;;;;;14.68;3.85;;;;;;;3.66;83.77;100392.03;4973463;28;20034;-75
2022/01/05 09:12:02;;;;;;;16.98;3.15;;;;;;;3.75;83.13;100394.25;4968729;28;20783;-79
2022/01/05 09:14:27;;;;;;;9.00;1.88;;;;;;;3.76;83.02;100394.16;4972362;28;20046;-76
2022/01/05 09:16:52;;;;;;;8.38;2.92;;;;;;;3.80;83.23;100394.88;4979104;28;20469;-72
2022/01/05 09:19:18;;;;;;;14.25;2.70;;;;;;;3.79;83.98;100387.75;4970878;28;20026;-77
2022/01/05 09:21:48;;;;;;;6.97;2.70;;;;;;;3.78;84.80;100410.25;4978184;28;20070;-77
2022/01/05 09:24:14;;;;;;;12.82;2.30;;;;;;;3.77;84.71;100412.03;4969287;28;20307;-72
2022/01/05 09:26:39;;;;;;;19.25;2.42;;;;;;;3.79;84.46;100420.91;4973890;28;20038;-78
2022/01/05 09:29:04;;;;;;;12.38;2.70;;;;;;;3.75;84.84;100405.88;4972969;28;20402;-75
2022/01/05 09:31:29;;;;;;;10.70;2.45;;;;;;;3.85;85.19;100425.09;4973598;28;20049;-77
2022/01/05 09:33:55;;;;;;;16.50;3.08;;;;;;;3.86;84.95;100420.59;4977655;28;20109;-72
2022/01/05 09:36:31;;;;;;;8.77;2.03;;;;;;;3.89;85.18;100421.31;4979668;28;20427;-75
2022/01/05 09:41:58;;;;;;;10.38;2.53;;;;;;;3.92;83.62;100436.44;4972211;28;20041;-75
2022/01/05 09:44:28;;;;;;;10.00;2.00;;;;;;;3.92;84.79;100447.22;4968475;28;20035;-77
2022/01/05 09:46:59;;;;;;;15.45;2.17;;;;;;;3.92;84.80;100448.06;4966118;28;20893;-78
2022/01/05 09:49:35;;;;;;;14.05;3.00;;;;;;;3.93;84.51;100447.13;4969929;28;20049;-77
2022/01/05 09:52:06;;;;;;;18.02;3.50;;;;;;;3.94;84.45;100447.97;4971907;28;20042;-73
2022/01/05 09:54:33;;;;;;;11.43;2.35;;;;;;;3.94;84.93;100450.69;4968364;28;20038;-77
2022/01/05 09:56:59;;;;;;;7.75;2.28;;;;;;;3.94;84.01;100456.06;4975913;28;20072;-76
2022/01/05 09:59:24;;;;;;;14.48;2.83;;;;;;;3.93;84.62;100449.81;4979062;28;20094;-78
2022/01/05 10:01:50;;;;;;;13.52;2.22;;;;;;;3.92;85.59;100450.75;4972968;28;20069;-72
2022/01/05 10:04:16;;;;;;;11.23;2.47;;;;;;;3.96;84.63;100456.84;4975209;28;20026;-76
2022/01/05 10:06:42;;;;;;;14.70;2.47;;;;;;;3.98;84.79;100458.50;4981246;28;20046;-75
2022/01/05 10:09:08;;;;;;;10.75;1.98;;;;;;;4.02;84.67;100457.41;4977145;28;20034;-76
2022/01/05 10:11:34;;;;;;;23.20;2.20;;;;;;;4.05;84.65;100461.75;4989194;28;20109;-76
2022/01/05 10:14:00;;;;;;;10.98;2.45;;;;;;;4.06;85.05;100469.75;4988322;28;20105;-72
2022/01/05 10:16:25;;;;;;;19.70;3.00;;;;;;;4.10;85.25;100475.84;4981482;28;20734;-76
2022/01/05 10:18:51;;;;;;;16.73;2.53;;;;;;;4.14;84.56;100466.66;4976473;28;20533;-75
2022/01/05 10:21:17;;;;;;;21.73;3.05;;;;;;;4.21;84.89;100470.78;4987398;28;20045;-76
2022/01/05 10:23:51;;;;;;;12.00;2.78;;;;;;;4.36;85.13;100471.78;4985454;28;20100;-72
2022/01/05 10:26:17;;;;;;;10.52;2.60;;;;;;;4.51;85.12;100465.59;4987037;28;20178;-75
2022/01/05 10:28:43;;;;;;;15.75;2.83;;;;;;;4.65;84.11;100486.41;4985579;28;20065;-72
2022/01/05 10:31:15;;;;;;;8.35;2.08;;;;;;;4.70;83.63;100469.97;4984120;28;20045;-72
2022/01/05 10:33:41;;;;;;;13.30;2.40;;;;;;;4.70;82.98;100478.06;4977329;28;20041;-72
2022/01/05 10:36:06;;;;;;;10.80;2.42;;;;;;;4.70;84.07;100469.97;4988372;28;20399;-74
2022/01/05 10:38:31;;;;;;;17.42;2.80;;;;;;;4.75;82.61;100476.84;4988283;28;20038;-75
2022/01/05 10:40:57;;;;;;;13.93;2.67;;;;;;;4.78;82.94;100474.00;4987947;28;20430;-75
2022/01/05 10:43:22;;;;;;;18.00;2.42;;;;;;;4.87;82.06;100488.81;4986118;28;20058;-73
2022/01/05 10:45:51;;;;;;;15.15;2.03;;;;;;;4.95;82.13;100485.69;4983374;28;20085;-75
2022/01/05 10:48:18;;;;;;;15.55;2.17;;;;;;;4.99;81.73;100490.84;4984617;28;20475;-72
2022/01/05 10:50:47;;;;;;;11.45;1.98;;;;;;;5.07;81.83;100479.63;4986783;28;20438;-75
2022/01/05 10:53:20;;;;;;;15.40;2.45;;;;;;;5.21;81.55;100516.59;4986318;28;20014;-79
2022/01/05 10:55:47;;;;;;;7.22;1.98;;;;;;;5.32;81.32;100514.19;4976739;28;20026;-75
2022/01/05 10:58:15;;;;;;;8.20;2.00;;;;;;;5.44;81.13;100504.53;4987114;28;20022;-79
2022/01/05 11:00:46;;;;;;;13.07;2.85;;;;;;;5.53;80.01;100499.47;4976482;28;20236;-78
2022/01/05 11:03:28;;;;;;;13.07;3.08;;;;;;;5.55;80.22;100491.31;4977461;28;20038;-75
2022/01/05 11:06:05;;;;;;;7.55;2.83;;;;;;;5.51;80.57;100514.88;4977406;28;20053;-78
2022/01/05 11:08:32;;;;;;;13.32;2.15;;;;;;;5.50;79.54;100528.44;4981298;28;20138;-75
2022/01/05 11:10:58;;;;;;;9.77;2.08;;;;;;;5.51;80.05;100520.28;4977295;28;20026;-72
2022/01/05 11:13:26;;;;;;;13.93;2.20;;;;;;;5.50;79.31;100529.34;4983507;28;20034;-75
2022/01/05 11:15:56;;;;;;;9.35;2.03;;;;;;;5.49;80.79;100543.75;4982482;28;20050;-76
2022/01/05 11:18:22;;;;;;;12.57;4.07;;;;;;;5.49;79.74;100524.88;4982400;28;20035;-77
2022/01/05 11:20:52;;;;;;;8.02;1.98;;;;;;;5.50;79.81;100548.22;4987239;28;20033;-75
2022/01/05 11:23:22;;;;;;;13.90;2.40;;;;;;;5.48;80.42;100516.88;4975580;28;20252;-76
2022/01/05 11:25:48;;;;;;;10.48;1.98;;;;;;;5.53;79.99;100528.28;4982106;28;20105;-75